Time;durP1;ratioP1;P1;durP2;ratioP2;P2;SDS_P1;SDS_P2;PMS_P1;PMS_P2;Temp;Humidity;BMP_temperature;BMP_pressure;BME280_temperature;BME280_humidity;BME280_pressure;Samples;Min_cycle;Max_cycle;Signal;HPM_P1;HPM_P2
2022/06/13 00:00:30;;;;;;;;;;;;;;;17.41;75.61;99168.52;1831592;78;20113;-76
2022/06/13 00:02:59;;;;;;;;;;;;;;;17.36;76.06;99163.28;1831703;78;20137;-76
2022/06/13 00:05:25;;;;;;;;;;;;;;;17.31;76.17;99163.61;1831956;78;20089;-76
2022/06/13 00:07:51;;;;;;;;;;;;;;;17.27;76.61;99159.98;1831738;78;20424;-76
2022/06/13 00:10:19;;;;;;;;;;;;;;;17.21;76.28;99170.58;1831716;78;21082;-76
2022/06/13 00:12:45;;;;;;;;;;;;;;;17.20;76.16;99169.56;1831925;78;20090;-76
2022/06/13 00:15:14;;;;;;;;;;;;;;;17.20;76.21;99165.39;1831685;78;20085;-76
2022/06/13 00:17:41;;;;;;;;;;;;;;;17.18;76.11;99168.53;1831652;78;20109;-76
2022/06/13 00:20:09;;;;;;;;;;;;;;;17.16;76.50;99163.36;1831997;78;20479;-76
2022/06/13 00:22:35;;;;;;;;;;;;;;;17.12;76.54;99165.27;1831970;78;21097;-76
2022/06/13 00:25:02;;;;;;;;;;;;;;;17.04;76.81;99174.62;1831639;78;20101;-76
2022/06/13 00:27:29;;;;;;;;;;;;;;;16.96;77.44;99167.34;1831696;78;20077;-76
2022/06/13 00:29:57;;;;;;;;;;;;;;;16.86;77.60;99169.91;1831603;78;20077;-76
2022/06/13 00:32:24;;;;;;;;;;;;;;;16.76;78.30;99162.98;1831730;78;20460;-76
2022/06/13 00:34:51;;;;;;;;;;;;;;;16.67;78.34;99162.44;1826563;78;21084;-76
2022/06/13 00:37:17;;;;;;;;;;;;;;;16.64;78.74;99155.65;1825579;78;20077;-76
2022/06/13 00:39:44;;;;;;;;;;;;;;;16.61;78.65;99154.96;1825567;78;20113;-76
2022/06/13 00:42:10;;;;;;;;;;;;;;;16.59;78.79;99161.45;1825846;78;20145;-76
2022/06/13 00:44:38;;;;;;;;;;;;;;;16.56;79.18;99157.22;1793888;78;20089;-76
2022/06/13 00:47:04;;;;;;;;;;;;;;;16.56;79.07;99158.03;1825560;78;21161;-76
2022/06/13 00:49:35;;;;;;;;;;;;;;;16.60;79.01;99156.71;1825790;78;20070;-76
2022/06/13 00:52:16;;;;;;;;;;;;;;;16.61;78.82;99156.34;1825527;78;20105;-76
2022/06/13 00:54:43;;;;;;;;;;;;;;;16.62;79.18;99159.34;1825707;78;20085;-76
2022/06/13 00:57:16;;;;;;;;;;;;;;;16.63;79.31;99160.14;1825914;78;20093;-76
2022/06/13 00:59:43;;;;;;;;;;;;;;;16.62;79.26;99162.69;1824859;78;21168;-76
2022/06/13 01:02:10;;;;;;;;;;;;;;;16.61;79.56;99158.31;1825540;78;20113;-76
2022/06/13 01:04:37;;;;;;;;;;;;;;;16.60;79.48;99159.48;1825507;78;20094;-76
2022/06/13 01:07:04;;;;;;;;;;;;;;;16.60;79.90;99159.48;1825539;78;20425;-76
2022/06/13 01:12:16;;;;;;;;;;;;;;;16.57;80.10;99161.59;1776379;78;21062;-76
2022/06/13 01:15:09;;;;;;;;;;;;;;;16.55;80.27;99161.97;1825641;78;20118;-76
2022/06/13 01:17:56;;;;;;;;;;;;;;;16.57;80.34;99160.22;1755624;78;34401;-76
2022/06/13 01:20:29;;;;;;;;;;;;;;;16.54;80.39;99160.36;1825646;78;20122;-76
2022/06/13 01:23:18;;;;;;;;;;;;;;;16.55;80.57;99153.66;1825607;78;20090;-76
2022/06/13 01:26:16;;;;;;;;;;;;;;;16.52;80.78;99155.77;1825360;78;21791;-76
2022/06/13 01:29:20;;;;;;;;;;;;;;;16.50;80.96;99156.71;1825486;78;20101;-76
2022/06/13 01:31:54;;;;;;;;;;;;;;;16.46;81.08;99155.25;1825592;78;20109;-76
2022/06/13 01:34:33;;;;;;;;;;;;;;;16.43;81.41;99164.30;1828676;78;20082;-76
2022/06/13 01:37:33;;;;;;;;;;;;;;;16.47;81.43;99162.98;1831586;78;20078;-76
2022/06/13 01:40:25;;;;;;;;;;;;;;;16.46;81.60;99155.25;1831666;78;21750;-76
2022/06/13 01:42:59;;;;;;;;;;;;;;;16.46;81.95;99157.22;1831524;78;20089;-76
2022/06/13 01:45:33;;;;;;;;;;;;;;;16.41;82.22;99151.39;1805824;78;20078;-76
2022/06/13 01:48:20;;;;;;;;;;;;;;;16.38;82.42;99159.62;1831431;78;20575;-76
2022/06/13 01:50:55;;;;;;;;;;;;;;;16.38;82.39;99159.04;1831997;78;20078;-76
2022/06/13 01:53:50;;;;;;;;;;;;;;;16.38;82.38;99158.23;1831724;78;21125;-76
2022/06/13 01:56:17;;;;;;;;;;;;;;;16.37;82.50;99158.82;1832104;78;20077;-76
2022/06/13 01:58:53;;;;;;;;;;;;;;;16.48;82.19;99162.62;1831706;78;20429;-76
2022/06/13 02:01:40;;;;;;;;;;;;;;;16.58;81.94;99166.77;1831842;78;20413;-76
2022/06/13 02:04:22;;;;;;;;;;;;;;;16.65;82.10;99171.70;1831937;78;20433;-77
2022/06/13 02:06:54;;;;;;;;;;;;;;;16.68;81.87;99164.84;1802355;78;20093;-76
2022/06/13 02:09:23;;;;;;;;;;;;;;;16.72;81.26;99167.69;1831512;78;20109;-76
2022/06/13 02:11:51;;;;;;;;;;;;;;;16.74;81.47;99164.77;1830976;78;20437;-76
2022/06/13 02:14:24;;;;;;;;;;;;;;;16.76;81.65;99168.52;1831719;78;20188;-79
2022/06/13 02:17:00;;;;;;;;;;;;;;;16.75;82.17;99166.95;1831934;78;20078;-72
2022/06/13 02:19:34;;;;;;;;;;;;;;;16.74;82.28;99162.58;1831816;78;20066;-72
2022/06/13 02:22:07;;;;;;;;;;;;;;;16.78;82.15;99166.98;1814575;78;20113;-73
2022/06/13 02:24:41;;;;;;;;;;;;;;;16.84;82.39;99166.11;1819145;78;20080;-73
2022/06/13 02:27:08;;;;;;;;;;;;;;;16.92;82.15;99171.21;1824801;78;20077;-73
2022/06/13 02:29:38;;;;;;;;;;;;;;;17.01;81.69;99166.23;1824301;78;20077;-74
2022/06/13 02:32:08;;;;;;;;;;;;;;;17.11;81.07;99170.59;1831199;78;21122;-76
2022/06/13 02:34:42;;;;;;;;;;;;;;;17.18;80.49;99169.13;1833167;77;20186;-75
2022/06/13 02:37:15;;;;;;;;;;;;;;;17.23;80.29;99165.46;1834985;78;20112;-75
2022/06/13 02:39:51;;;;;;;;;;;;;;;17.27;79.97;99176.63;1835065;78;20440;-75
2022/06/13 02:42:24;;;;;;;;;;;;;;;17.34;79.89;99173.94;1834878;78;20092;-75
2022/06/13 02:44:57;;;;;;;;;;;;;;;17.38;79.89;99171.45;1834673;78;21146;-75
2022/06/13 02:47:40;;;;;;;;;;;;;;;17.44;79.07;99183.04;1834634;78;20553;-77
2022/06/13 02:50:10;;;;;;;;;;;;;;;17.48;78.75;99181.12;1834807;78;20082;-76
2022/06/13 02:52:44;;;;;;;;;;;;;;;17.49;78.68;99180.76;1834726;78;20121;-76
2022/06/13 02:55:11;;;;;;;;;;;;;;;17.52;78.53;99175.05;1834822;78;20089;-75
2022/06/13 02:57:47;;;;;;;;;;;;;;;17.52;78.50;99177.03;1835080;78;21751;-75
2022/06/13 03:00:54;;;;;;;;;;;;;;;17.55;78.38;99180.45;1834443;78;20164;-75
2022/06/13 03:03:33;;;;;;;;;;;;;;;17.55;78.48;99184.03;1830942;78;20077;-75
2022/06/13 03:06:31;;;;;;;;;;;;;;;17.53;78.13;99183.59;1831877;78;20101;-76
2022/06/13 03:09:17;;;;;;;;;;;;;;;17.52;78.14;99188.93;1832709;78;20097;-76
2022/06/13 03:11:57;;;;;;;;;;;;;;;17.50;78.71;99190.69;1848241;77;21122;-76
2022/06/13 03:14:40;;;;;;;;;;;;;;;17.49;79.07;99184.92;1832572;78;20065;-76
2022/06/13 03:17:13;;;;;;;;;;;;;;;17.50;78.72;99186.53;1832681;78;20077;-76
2022/06/13 03:19:47;;;;;;;;;;;;;;;17.52;79.12;99189.52;1832636;78;20078;-73
2022/06/13 03:22:17;;;;;;;;;;;;;;;17.54;79.03;99188.56;1832653;78;20117;-76
2022/06/13 03:24:57;;;;;;;;;;;;;;;17.55;79.95;99188.19;1833017;78;21076;-76
2022/06/13 03:27:29;;;;;;;;;;;;;;;17.60;79.87;99188.47;1832627;78;20089;-79
2022/06/13 03:30:03;;;;;;;;;;;;;;;17.68;79.63;99182.69;1829426;78;20119;-76
2022/06/13 03:32:33;;;;;;;;;;;;;;;17.77;79.46;99191.56;1813413;78;20137;-73
2022/06/13 03:35:02;;;;;;;;;;;;;;;17.87;79.53;99190.72;1814249;79;20109;-73
2022/06/13 03:37:41;;;;;;;;;;;;;;;17.95;78.90;99193.80;1764532;80;21165;-74
2022/06/13 03:40:13;;;;;;;;;;;;;;;18.02;78.85;99193.91;1796417;80;20108;-73
2022/06/13 03:42:43;;;;;;;;;;;;;;;18.11;78.53;99186.11;1812716;79;20110;-73
2022/06/13 03:45:25;;;;;;;;;;;;;;;18.17;78.59;99184.61;1793182;80;20096;-74
2022/06/13 03:47:55;;;;;;;;;;;;;;;18.19;78.46;99187.02;1797431;80;20144;-75
2022/06/13 03:50:30;;;;;;;;;;;;;;;18.25;78.38;99190.48;1812789;79;21097;-73
2022/06/13 03:53:09;;;;;;;;;;;;;;;18.30;77.90;99186.58;1792908;80;20092;-73
2022/06/13 03:55:42;;;;;;;;;;;;;;;18.34;78.13;99184.65;1796625;80;20102;-73
2022/06/13 03:58:12;;;;;;;;;;;;;;;18.37;78.03;99189.45;1829337;78;20095;-74
2022/06/13 04:00:52;;;;;;;;;;;;;;;18.42;78.78;99190.52;1799131;79;20436;-74
2022/06/13 04:03:18;;;;;;;;;;;;;;;18.48;78.43;99191.17;1822784;78;21058;-73
2022/06/13 04:05:58;;;;;;;;;;;;;;;18.56;78.34;99189.88;1822659;78;20109;-74
2022/06/13 04:08:24;;;;;;;;;;;;;;;18.59;78.60;99196.88;1822778;78;20077;-73
2022/06/13 04:11:01;;;;;;;;;;;;;;;18.65;78.24;99193.20;1822679;78;20240;-73
2022/06/13 04:13:53;;;;;;;;;;;;;;;18.70;78.22;99194.26;1822041;78;20106;-73
2022/06/13 04:16:33;;;;;;;;;;;;;;;18.75;77.75;99194.73;1822621;78;21156;-72
2022/06/13 04:19:15;;;;;;;;;;;;;;;18.84;77.81;99196.41;1814499;78;20082;-72
2022/06/13 04:22:01;;;;;;;;;;;;;;;18.92;77.90;99198.91;1820881;78;20138;-72
2022/06/13 04:24:43;;;;;;;;;;;;;;;19.01;77.88;99198.61;1822606;78;20142;-72
2022/06/13 04:27:27;;;;;;;;;;;;;;;19.10;77.73;99198.48;1823382;78;20148;-72
2022/06/13 04:30:09;;;;;;;;;;;;;;;19.18;77.82;99199.36;1823523;78;21148;-73
2022/06/13 04:32:48;;;;;;;;;;;;;;;19.27;77.58;99194.88;1823097;78;20523;-73
2022/06/13 04:35:15;;;;;;;;;;;;;;;19.38;77.42;99203.55;1821896;78;20227;-73
2022/06/13 04:37:42;;;;;;;;;;;;;;;19.48;77.29;99204.83;1820608;79;20078;-73
2022/06/13 04:40:12;;;;;;;;;;;;;;;19.57;76.98;99204.55;1820370;78;20152;-73
2022/06/13 04:42:38;;;;;;;;;;;;;;;19.66;76.64;99207.19;1838238;77;21101;-72
2022/06/13 04:45:25;;;;;;;;;;;;;;;19.71;75.50;99208.23;1820105;79;20078;-74
2022/06/13 04:47:53;;;;;;;;;;;;;;;19.76;75.29;99202.90;1800139;79;20066;-74
2022/06/13 04:50:23;;;;;;;;;;;;;;;19.80;74.74;99207.91;1799258;80;20142;-74
2022/06/13 04:52:50;;;;;;;;;;;;;;;19.83;74.98;99211.91;1786385;80;20111;-73
2022/06/13 04:55:26;;;;;;;;;;;;;;;19.89;74.87;99203.41;1787413;80;21155;-73
2022/06/13 04:57:54;;;;;;;;;;;;;;;19.97;75.35;99208.64;1787001;80;20116;-73
2022/06/13 05:00:21;;;;;;;;;;;;;;;20.08;74.42;99200.36;1787099;80;20416;-73
2022/06/13 05:02:48;;;;;;;;;;;;;;;20.16;74.01;99208.98;1787031;80;20092;-72
2022/06/13 05:05:34;;;;;;;;;;;;;;;20.21;73.41;99211.41;1787012;80;20120;-73
2022/06/13 05:08:13;;;;;;;;;;;;;;;20.29;74.22;99213.02;1787381;80;21095;-73
2022/06/13 05:10:41;;;;;;;;;;;;;;;20.42;73.72;99209.34;1785244;80;20420;-73
2022/06/13 05:13:07;;;;;;;;;;;;;;;20.52;73.58;99205.81;1757147;80;20459;-72
2022/06/13 05:15:33;;;;;;;;;;;;;;;20.60;72.33;99215.02;1786992;80;20435;-73
2022/06/13 05:18:18;;;;;;;;;;;;;;;20.66;72.64;99214.84;1786765;80;20081;-73
2022/06/13 05:21:09;;;;;;;;;;;;;;;20.74;72.94;99213.70;1786413;80;21160;-78
2022/06/13 05:23:56;;;;;;;;;;;;;;;20.84;73.77;99219.88;1786953;80;20080;-79
2022/06/13 05:26:28;;;;;;;;;;;;;;;20.99;72.57;99219.34;1776136;80;20084;-76
2022/06/13 05:28:51;;;;;;;;;;;;;;;21.08;72.23;99220.58;1786238;80;20080;-80
2022/06/13 05:31:19;;;;;;;;;;;;;;;21.14;70.30;99220.20;1786953;80;20093;-79
2022/06/13 05:33:46;;;;;;;;;;;;;;;21.16;70.82;99223.39;1784662;80;21154;-81
2022/06/13 05:36:16;;;;;;;;;;;;;;;21.19;70.77;99226.79;1797906;79;20092;-82
2022/06/13 05:38:49;;;;;;;;;;;;;;;21.25;70.54;99225.24;1801520;79;20159;-84
2022/06/13 05:41:16;;;;;;;;;;;;;;;21.35;70.34;99224.47;1801194;79;20096;-77
2022/06/13 05:43:43;;;;;;;;;;;;;;;21.48;70.46;99223.47;1801403;79;20111;-77
2022/06/13 05:46:16;;;;;;;;;;;;;;;21.59;70.60;99222.89;1801237;79;21965;-77
2022/06/13 05:48:42;;;;;;;;;;;;;;;21.71;70.49;99221.91;1800996;79;20088;-76
2022/06/13 05:51:09;;;;;;;;;;;;;;;21.86;71.50;99229.70;1801617;79;20154;-75
2022/06/13 05:53:35;;;;;;;;;;;;;;;22.02;70.60;99223.11;1801287;79;20115;-74
2022/06/13 05:56:02;;;;;;;;;;;;;;;22.15;69.78;99221.30;1801288;79;20076;-74
2022/06/13 05:58:29;;;;;;;;;;;;;;;22.24;69.15;99210.51;1801252;79;21553;-74
2022/06/13 06:00:57;;;;;;;;;;;;;;;22.31;69.05;99224.48;1801539;79;20415;-77
2022/06/13 06:03:25;;;;;;;;;;;;;;;22.36;69.56;99215.68;1801131;79;20111;-76
2022/06/13 06:05:52;;;;;;;;;;;;;;;22.49;67.36;99211.86;1801073;79;20115;-76
2022/06/13 06:08:23;;;;;;;;;;;;;;;22.58;67.68;99216.39;1801550;79;20123;-76
2022/06/13 06:10:53;;;;;;;;;;;;;;;22.68;65.30;99209.97;1801330;79;21062;-76
2022/06/13 06:13:19;;;;;;;;;;;;;;;22.69;65.83;99212.97;1801483;79;20146;-77
2022/06/13 06:15:46;;;;;;;;;;;;;;;22.68;63.88;99212.77;1801511;79;20079;-75
2022/06/13 06:18:12;;;;;;;;;;;;;;;22.62;64.12;99218.59;1801236;79;20576;-76
2022/06/13 06:20:39;;;;;;;;;;;;;;;22.52;64.30;99215.25;1801267;79;20159;-77
2022/06/13 06:23:07;;;;;;;;;;;;;;;22.48;65.57;99214.45;1801626;79;21115;-76
2022/06/13 06:25:35;;;;;;;;;;;;;;;22.50;65.27;99210.66;1800888;79;20440;-78
2022/06/13 06:28:02;;;;;;;;;;;;;;;22.54;65.75;99210.02;1801266;79;20096;-77
2022/06/13 06:30:28;;;;;;;;;;;;;;;22.58;65.65;99209.41;1786667;79;20403;-77
2022/06/13 06:32:55;;;;;;;;;;;;;;;22.63;64.93;99208.98;1774018;81;20441;-78
2022/06/13 06:35:23;;;;;;;;;;;;;;;22.70;64.01;99204.77;1772400;81;21485;-76
2022/06/13 06:37:49;;;;;;;;;;;;;;;22.82;64.37;99201.55;1768195;81;20141;-76
2022/06/13 06:40:17;;;;;;;;;;;;;;;23.00;63.18;99201.48;1768358;81;20443;-76
2022/06/13 06:42:45;;;;;;;;;;;;;;;23.18;63.40;99205.55;1768312;81;20426;-77
2022/06/13 06:45:13;;;;;;;;;;;;;;;23.33;63.35;99202.88;1768440;81;20421;-77
2022/06/13 06:47:39;;;;;;;;;;;;;;;23.47;62.36;99201.98;1768421;81;21113;-77
2022/06/13 06:50:08;;;;;;;;;;;;;;;23.63;59.79;99197.49;1772588;79;20094;-77
2022/06/13 06:52:36;;;;;;;;;;;;;;;23.76;61.06;99205.38;1800858;79;20423;-76
2022/06/13 07:00:32;;;;;;;;;;;;;;;24.08;59.43;99200.90;1800916;79;20560;-77
2022/06/13 07:02:58;;;;;;;;;;;;;;;24.19;59.34;99198.19;1801070;79;20088;-76
2022/06/13 07:05:25;;;;;;;;;;;;;;;24.27;59.19;99196.11;1800794;79;20087;-77
2022/06/13 07:07:52;;;;;;;;;;;;;;;24.40;59.06;99197.78;1800768;79;20148;-76
2022/06/13 07:10:19;;;;;;;;;;;;;;;24.55;58.41;99193.00;1800903;79;20438;-76
2022/06/13 07:12:45;;;;;;;;;;;;;;;24.73;57.57;99197.00;1794134;79;21124;-76
2022/06/13 07:15:13;;;;;;;;;;;;;;;24.90;56.11;99200.17;1782031;79;20078;-77
2022/06/13 07:17:40;;;;;;;;;;;;;;;25.04;54.25;99198.42;1778044;79;20110;-76
2022/06/13 07:20:10;;;;;;;;;;;;;;;25.11;54.33;99196.92;1790362;79;20469;-76
2022/06/13 07:22:37;;;;;;;;;;;;;;;25.15;54.63;99190.66;1800336;79;20085;-77
2022/06/13 07:25:04;;;;;;;;;;;;;;;25.17;53.99;99194.63;1800520;79;21500;-77
2022/06/13 07:27:30;;;;;;;;;;;;;;;25.20;52.58;99200.02;1800067;79;20096;-77
2022/06/13 07:29:57;;;;;;;;;;;;;;;25.23;51.72;99198.56;1800229;79;20087;-77
2022/06/13 07:32:25;;;;;;;;;;;;;;;25.17;52.29;99205.07;1800428;79;20158;-76
2022/06/13 07:34:52;;;;;;;;;;;;;;;25.08;51.40;99201.98;1800256;79;20071;-77
2022/06/13 07:40:08;;;;;;;;;;;;;;;25.28;50.15;99195.89;1800217;79;20092;-77
2022/06/13 07:42:50;;;;;;;;;;;;;;;25.51;51.11;99196.52;1800192;79;20116;-78
2022/06/13 07:45:21;;;;;;;;;;;;;;;25.74;49.55;99190.97;1800316;79;20080;-77
2022/06/13 07:47:53;;;;;;;;;;;;;;;26.02;51.96;99195.29;1800329;79;20462;-77
2022/06/13 07:50:20;;;;;;;;;;;;;;;26.29;50.28;99193.81;1799245;79;21087;-76
2022/06/13 07:52:49;;;;;;;;;;;;;;;26.38;47.35;99194.07;1800411;79;20240;-77
2022/06/13 07:55:15;;;;;;;;;;;;;;;26.33;47.82;99191.75;1800579;79;20152;-78
2022/06/13 07:57:42;;;;;;;;;;;;;;;26.29;46.69;99198.82;1800435;79;20091;-79
2022/06/13 08:00:11;;;;;;;;;;;;;;;26.33;47.48;99197.38;1800188;79;20107;-78
2022/06/13 08:02:38;;;;;;;;;;;;;;;26.49;46.65;99186.22;1800309;79;21145;-77
2022/06/13 08:05:05;;;;;;;;;;;;;;;26.64;46.72;99187.50;1800454;79;20091;-76
2022/06/13 08:07:32;;;;;;;;;;;;;;;26.78;46.77;99178.58;1800163;79;20091;-77
2022/06/13 08:09:58;;;;;;;;;;;;;;;27.01;47.48;99179.93;1800188;79;20206;-76
2022/06/13 08:12:25;;;;;;;;;;;;;;;27.28;46.33;99170.64;1800187;79;20466;-77
2022/06/13 08:14:53;;;;;;;;;;;;;;;27.50;44.83;99177.19;1800291;79;21123;-77
2022/06/13 08:17:20;;;;;;;;;;;;;;;27.71;44.41;99173.09;1800189;79;20172;-77
2022/06/13 08:19:46;;;;;;;;;;;;;;;27.91;43.19;99180.20;1800502;79;20116;-77
2022/06/13 08:22:14;;;;;;;;;;;;;;;28.17;41.30;99172.67;1800161;79;20754;-77
2022/06/13 08:24:41;;;;;;;;;;;;;;;28.53;41.23;99168.27;1800212;79;20128;-76
2022/06/13 08:27:08;;;;;;;;;;;;;;;28.80;39.64;99163.66;1800324;79;21603;-77
2022/06/13 08:29:35;;;;;;;;;;;;;;;28.97;39.80;99171.44;1800076;79;20411;-76
2022/06/13 08:32:02;;;;;;;;;;;;;;;29.25;39.41;99176.22;1800143;79;20089;-77
2022/06/13 08:34:28;;;;;;;;;;;;;;;29.59;38.36;99174.76;1766931;79;20096;-77
2022/06/13 08:36:56;;;;;;;;;;;;;;;29.79;38.33;99169.64;1791639;79;20439;-76
2022/06/13 08:39:23;;;;;;;;;;;;;;;30.00;38.68;99175.86;1787680;80;21067;-77
2022/06/13 08:42:03;;;;;;;;;;;;;;;30.16;37.40;99170.81;1787597;80;20084;-77
2022/06/13 08:44:49;;;;;;;;;;;;;;;30.14;35.17;99174.72;1786800;80;20092;-77
2022/06/13 08:47:43;;;;;;;;;;;;;;;29.76;35.17;99167.73;1787871;80;20104;-76
2022/06/13 08:50:29;;;;;;;;;;;;;;;29.16;37.33;99165.42;1787544;79;20085;-76
2022/06/13 08:53:11;;;;;;;;;;;;;;;29.06;37.99;99166.53;1787509;80;21148;-77
2022/06/13 08:55:48;;;;;;;;;;;;;;;29.36;37.52;99167.41;1787560;80;20069;-77
2022/06/13 08:58:29;;;;;;;;;;;;;;;29.69;37.06;99162.92;1787895;80;20116;-76
2022/06/13 09:01:02;;;;;;;;;;;;;;;29.71;37.03;99162.64;1787663;80;20458;-76
2022/06/13 09:03:35;;;;;;;;;;;;;;;29.62;36.75;99167.41;1787877;80;20104;-77
2022/06/13 09:06:14;;;;;;;;;;;;;;;29.67;36.24;99154.11;1787558;80;21188;-77
2022/06/13 09:09:00;;;;;;;;;;;;;;;29.67;34.36;99149.23;1787754;80;20135;-77
2022/06/13 09:11:36;;;;;;;;;;;;;;;29.50;36.95;99150.61;1787718;80;20136;-76
2022/06/13 09:14:23;;;;;;;;;;;;;;;29.48;36.65;99150.27;1787654;80;20092;-76
2022/06/13 09:17:10;;;;;;;;;;;;;;;29.25;37.21;99158.47;1787702;79;20428;-76
2022/06/13 09:19:55;;;;;;;;;;;;;;;28.78;36.58;99156.88;1787683;80;21153;-77
2022/06/13 09:22:28;;;;;;;;;;;;;;;28.35;37.64;99157.29;1759465;80;20125;-76
2022/06/13 09:25:11;;;;;;;;;;;;;;;28.08;36.74;99159.81;1786403;80;20080;-76
2022/06/13 09:27:46;;;;;;;;;;;;;;;27.94;38.50;99160.19;1781465;80;20117;-75
2022/06/13 09:30:14;;;;;;;;;;;;;;;27.91;40.19;99153.40;1744018;82;20084;-72
2022/06/13 09:32:53;;;;;;;;;;;;;;;27.74;38.38;99150.41;1743675;81;21921;-74
2022/06/13 09:35:25;;;;;;;;;;;;;;;27.52;40.11;99149.35;1743756;82;20119;-73
2022/06/13 09:38:04;;;;;;;;;;;;;;;27.29;40.81;99144.66;1753872;81;20098;-80
2022/06/13 09:40:44;;;;;;;;;;;;;;;27.03;40.60;99140.85;1755768;81;20531;-76
2022/06/13 09:43:23;;;;;;;;;;;;;;;26.82;41.28;99144.11;1722188;82;20152;-76
2022/06/13 09:45:56;;;;;;;;;;;;;;;26.63;41.49;99140.87;1755514;81;21560;-76
2022/06/13 09:48:33;;;;;;;;;;;;;;;26.72;41.06;99136.67;1755581;81;20119;-76
2022/06/13 09:51:28;;;;;;;;;;;;;;;27.17;40.64;99132.66;1755608;81;20087;-76
2022/06/13 09:54:10;;;;;;;;;;;;;;;27.73;40.80;99136.78;1755502;81;20082;-76
2022/06/13 09:56:43;;;;;;;;;;;;;;;28.32;38.60;99138.42;1756056;81;20082;-76
2022/06/13 09:59:25;;;;;;;;;;;;;;;28.37;38.90;99144.31;1763756;80;21114;-76
2022/06/13 10:02:20;;;;;;;;;;;;;;;28.20;39.11;99140.74;1777203;80;20081;-75
2022/06/13 10:04:50;;;;;;;;;;;;;;;27.89;39.13;99143.17;1777391;81;20073;-76
2022/06/13 10:07:20;;;;;;;;;;;;;;;27.51;40.61;99138.69;1777823;80;20098;-76
2022/06/13 10:10:10;;;;;;;;;;;;;;;27.32;41.21;99135.33;1777479;80;20146;-76
2022/06/13 10:12:54;;;;;;;;;;;;;;;27.17;41.88;99133.45;1777379;80;20123;-76
2022/06/13 10:15:33;;;;;;;;;;;;;;;27.08;42.92;99133.30;1777297;81;20113;-76
2022/06/13 10:18:18;;;;;;;;;;;;;;;27.35;41.73;99123.17;1777614;80;20148;-76
2022/06/13 10:20:48;;;;;;;;;;;;;;;27.76;40.67;99127.41;1777055;80;20117;-76
2022/06/13 10:23:25;;;;;;;;;;;;;;;27.97;40.47;99116.98;1777818;80;20110;-76
2022/06/13 10:26:13;;;;;;;;;;;;;;;28.32;41.71;99114.43;1777486;80;21164;-76
2022/06/13 10:28:49;;;;;;;;;;;;;;;28.84;40.22;99118.39;1776689;80;20106;-76
2022/06/13 10:31:28;;;;;;;;;;;;;;;29.43;37.93;99112.70;1776933;80;20106;-75
2022/06/13 10:34:34;;;;;;;;;;;;;;;29.72;37.09;99115.34;1764855;81;20266;-80
2022/06/13 10:37:22;;;;;;;;;;;;;;;29.57;36.05;99114.41;1776275;79;20097;-88
2022/06/13 10:39:49;;;;;;;;;;;;;;;29.49;35.58;99111.65;1777458;80;21071;-82
2022/06/13 10:42:22;;;;;;;;;;;;;;;29.63;36.51;99112.42;1747870;80;20418;-82
2022/06/13 10:44:48;;;;;;;;;;;;;;;29.92;34.71;99112.23;1777807;80;20197;-83
2022/06/13 10:47:18;;;;;;;;;;;;;;;30.33;34.15;99105.52;1751943;80;20156;-81
2022/06/13 10:49:48;;;;;;;;;;;;;;;30.71;33.22;99107.52;1742742;82;20073;-85
2022/06/13 10:52:17;;;;;;;;;;;;;;;31.11;31.57;99108.20;1743804;82;21121;-86
2022/06/13 10:54:46;;;;;;;;;;;;;;;31.34;30.55;99099.16;1743238;82;20081;-83
2022/06/13 10:57:19;;;;;;;;;;;;;;;31.33;30.25;99086.86;1743757;82;20443;-87
2022/06/13 10:59:46;;;;;;;;;;;;;;;31.41;32.87;99096.66;1743777;82;21596;-84
2022/06/13 11:02:18;;;;;;;;;;;;;;;31.75;32.05;99101.34;1713934;82;20454;-80
2022/06/13 11:04:45;;;;;;;;;;;;;;;32.01;28.61;99096.14;1742472;82;21169;-80
2022/06/13 11:07:15;;;;;;;;;;;;;;;32.11;27.82;99092.84;1743510;82;20097;-78
2022/06/13 11:09:46;;;;;;;;;;;;;;;32.20;28.71;99093.47;1743485;82;20117;-79
2022/06/13 11:12:20;;;;;;;;;;;;;;;32.31;29.11;99094.44;1743257;82;20121;-76
2022/06/13 11:23:08;;;;;;;;;;;;;;;33.02;30.29;99095.37;1743621;82;20116;-76
2022/06/13 11:25:34;;;;;;;;;;;;;;;33.03;30.58;99094.09;1743730;82;20092;-76
2022/06/13 11:28:15;;;;;;;;;;;;;;;32.99;31.25;99090.00;1743507;82;20141;-75
2022/06/13 11:30:48;;;;;;;;;;;;;;;33.11;31.69;99079.69;1743580;82;20089;-77
2022/06/13 11:33:24;;;;;;;;;;;;;;;33.27;31.67;99084.99;1743286;82;20100;-82
2022/06/13 11:35:56;;;;;;;;;;;;;;;33.32;31.69;99080.73;1743592;82;20098;-84
2022/06/13 11:38:31;;;;;;;;;;;;;;;33.25;30.71;99081.05;1756942;81;20363;-79
2022/06/13 11:41:17;;;;;;;;;;;;;;;33.06;30.72;99071.19;1758919;81;20426;-84
2022/06/13 11:44:07;;;;;;;;;;;;;;;32.83;31.26;99081.09;1759452;81;21102;-77
2022/06/13 11:46:39;;;;;;;;;;;;;;;32.83;31.10;99085.34;1759155;81;20094;-77
2022/06/13 11:49:16;;;;;;;;;;;;;;;32.91;31.34;99070.32;1759317;81;20445;-86
2022/06/13 11:52:01;;;;;;;;;;;;;;;32.74;30.41;99069.88;1720953;81;20094;-76
2022/06/13 11:54:35;;;;;;;;;;;;;;;32.42;32.07;99078.46;1759357;81;20118;-74
2022/06/13 11:57:20;;;;;;;;;;;;;;;31.89;32.07;99076.58;1759372;81;21095;-73
2022/06/13 12:00:00;;;;;;;;;;;;;;;31.40;32.67;99074.60;1758898;81;20141;-84
2022/06/13 12:02:45;;;;;;;;;;;;;;;30.85;32.77;99071.55;1759103;81;20095;-75
2022/06/13 12:05:22;;;;;;;;;;;;;;;30.43;34.51;99070.36;1757502;81;20095;-74
2022/06/13 12:08:02;;;;;;;;;;;;;;;30.16;35.53;99065.28;1755902;81;20084;-79
2022/06/13 12:10:35;;;;;;;;;;;;;;;30.19;36.07;99057.29;1759244;81;20141;-74
2022/06/13 12:13:03;;;;;;;;;;;;;;;30.23;35.75;99048.83;1759153;81;20083;-76
2022/06/13 12:15:35;;;;;;;;;;;;;;;30.22;36.07;99045.83;1759147;81;20170;-78
2022/06/13 12:18:09;;;;;;;;;;;;;;;30.46;36.49;99046.78;1731523;81;20503;-75
2022/06/13 12:20:45;;;;;;;;;;;;;;;30.89;35.80;99043.08;1759273;81;20446;-76
2022/06/13 12:23:30;;;;;;;;;;;;;;;31.30;34.44;99033.30;1759247;81;21155;-75
2022/06/13 12:26:00;;;;;;;;;;;;;;;31.69;35.12;99039.39;1759474;81;20083;-76
2022/06/13 12:28:30;;;;;;;;;;;;;;;31.97;33.80;99034.48;1759287;81;20428;-76
2022/06/13 12:31:18;;;;;;;;;;;;;;;31.85;32.23;99038.42;1759363;81;20102;-75
2022/06/13 12:34:05;;;;;;;;;;;;;;;31.31;32.80;99036.30;1758440;81;20421;-81
2022/06/13 12:36:56;;;;;;;;;;;;;;;30.64;33.56;99039.80;1759242;81;21194;-76
2022/06/13 12:39:29;;;;;;;;;;;;;;;30.13;35.20;99031.61;1759139;81;20082;-77
2022/06/13 12:42:05;;;;;;;;;;;;;;;30.07;34.89;99032.04;1759177;81;20094;-76
2022/06/13 12:44:56;;;;;;;;;;;;;;;30.12;35.11;99024.38;1759302;81;20090;-76
2022/06/13 12:47:32;;;;;;;;;;;;;;;30.15;35.18;99021.25;1759282;81;20083;-76
2022/06/13 12:50:19;;;;;;;;;;;;;;;29.93;34.56;99021.86;1759163;81;21766;-76
2022/06/13 12:52:55;;;;;;;;;;;;;;;29.56;35.28;99020.92;1759183;81;20133;-76
2022/06/13 12:55:35;;;;;;;;;;;;;;;29.35;34.68;99021.64;1758618;81;20131;-77
2022/06/13 12:58:08;;;;;;;;;;;;;;;29.41;35.11;99017.62;1758209;81;20082;-77
2022/06/13 13:00:39;;;;;;;;;;;;;;;29.86;35.92;99017.25;1759295;81;20409;-76
2022/06/13 13:03:25;;;;;;;;;;;;;;;30.35;35.01;99009.58;1759407;81;21091;-78
2022/06/13 13:06:12;;;;;;;;;;;;;;;30.53;33.98;99006.23;1759106;81;20071;-76
2022/06/13 13:08:55;;;;;;;;;;;;;;;30.70;32.98;99003.95;1759300;81;20118;-76
2022/06/13 13:11:36;;;;;;;;;;;;;;;30.99;33.56;99007.05;1759270;81;20094;-76
2022/06/13 13:14:19;;;;;;;;;;;;;;;31.30;32.70;99002.11;1758533;81;20276;-77
2022/06/13 13:16:52;;;;;;;;;;;;;;;31.72;31.79;98999.51;1757866;81;21542;-77
2022/06/13 13:19:42;;;;;;;;;;;;;;;32.03;31.37;98996.47;1758713;81;20151;-76
2022/06/13 13:22:48;;;;;;;;;;;;;;;32.32;30.29;98985.25;1758951;81;20074;-77
2022/06/13 13:25:30;;;;;;;;;;;;;;;32.42;29.26;98990.41;1759060;81;20125;-76
2022/06/13 13:28:31;;;;;;;;;;;;;;;32.00;30.19;98983.86;1759285;81;20098;-76
2022/06/13 13:31:01;;;;;;;;;;;;;;;31.41;30.70;98982.59;1759429;81;21066;-76
2022/06/13 13:34:02;;;;;;;;;;;;;;;30.80;30.18;98982.12;1731585;81;20094;-77
2022/06/13 13:36:43;;;;;;;;;;;;;;;30.46;32.16;98975.36;1759008;81;20538;-77
2022/06/13 13:39:12;;;;;;;;;;;;;;;30.29;32.56;98978.25;1768628;81;20097;-76
2022/06/13 13:41:43;;;;;;;;;;;;;;;30.06;32.77;98973.86;1769628;81;20130;-77
2022/06/13 13:44:21;;;;;;;;;;;;;;;29.82;33.37;98969.28;1769787;81;21150;-77